Dolton, South Dakota
Current Conditions -  °F | °C
As of 9:53 AM on Saturday 22 Nov 2014 (Local Time) from KMHE Reporting Station
Clear Clear  
Wind Chill: 25°   Ceiling: Unl
Heat Index: 33°   Visibility: 8mi
Dew Point: 30°   Wind: 10mph
Humidity: 89%   Direction: 160°SSE
Pressure: 29.66"   Gusts: NA
Location:  43.5669°N, 97.5001°W
Report Text: KMHE 221553Z AUTO 16009KT 8SM CLR 01/M01 A2966 RMK AO2 SLP058 T00061011 $
Loading
Personal Weather Stations






























Interactive Weather Map New forecast layout! Learn more

10-Day Weather Forecast

Advertisements
Track Severe Weather on mobile